Time;durP1;ratioP1;P1;durP2;ratioP2;P2;SDS_P1;SDS_P2;PMS_P1;PMS_P2;Temp;Humidity;BMP_temperature;BMP_pressure;BME280_temperature;BME280_humidity;BME280_pressure;Samples;Min_cycle;Max_cycle;Signal;HPM_P1;HPM_P2
2024/01/31 00:01:57;;;;;;;20.98;12.88;;;22.00;51.80;;;;;;5073630;28;20035;-71
2024/01/31 00:04:23;;;;;;;19.75;12.00;;;22.00;51.80;;;;;;5091110;28;20046;-72
2024/01/31 00:06:50;;;;;;;20.40;11.73;;;22.00;51.70;;;;;;5114521;27;20032;-72
2024/01/31 00:09:16;;;;;;;21.98;12.60;;;22.00;51.70;;;;;;5113353;28;20034;-72
2024/01/31 00:11:42;;;;;;;19.52;13.07;;;21.90;51.70;;;;;;5113424;28;20019;-71
2024/01/31 00:14:09;;;;;;;23.58;13.32;;;22.10;51.70;;;;;;5113466;28;20027;-72
2024/01/31 00:16:36;;;;;;;23.50;12.45;;;22.00;51.60;;;;;;5113303;28;20043;-71
2024/01/31 00:19:02;;;;;;;25.83;14.70;;;22.00;51.60;;;;;;5094645;28;20097;-72
2024/01/31 00:21:28;;;;;;;22.55;14.63;;;22.00;51.60;;;;;;5113504;28;20088;-72
2024/01/31 00:23:54;;;;;;;20.80;13.43;;;22.00;51.60;;;;;;5113486;28;20078;-72
2024/01/31 00:26:21;;;;;;;23.38;14.38;;;22.10;51.60;;;;;;5113611;28;20099;-73
2024/01/31 00:28:47;;;;;;;28.33;16.38;;;22.00;51.50;;;;;;5094963;28;20069;-73
2024/01/31 00:31:13;;;;;;;27.13;16.95;;;22.00;51.40;;;;;;5094516;28;20047;-74
2024/01/31 00:33:40;;;;;;;28.02;15.68;;;22.00;51.40;;;;;;5112942;28;20034;-74
2024/01/31 00:36:06;;;;;;;30.35;16.63;;;22.00;51.40;;;;;;5113398;28;20046;-74
2024/01/31 00:38:32;;;;;;;26.40;16.20;;;22.00;51.40;;;;;;5112359;28;20067;-74
2024/01/31 00:40:58;;;;;;;27.63;17.48;;;21.90;51.40;;;;;;5112695;28;20102;-74
2024/01/31 00:43:24;;;;;;;34.03;19.02;;;22.00;51.40;;;;;;5112847;28;20060;-74
2024/01/31 00:45:50;;;;;;;33.47;19.85;;;21.90;51.40;;;;;;5112265;28;20035;-74
2024/01/31 00:48:17;;;;;;;34.30;19.30;;;21.90;51.30;;;;;;5113170;28;20035;-74
2024/01/31 00:50:43;;;;;;;29.30;18.92;;;21.90;51.40;;;;;;5111937;28;20092;-74
2024/01/31 00:53:09;;;;;;;30.33;16.67;;;21.90;51.40;;;;;;5094065;28;20428;-74
2024/01/31 00:55:35;;;;;;;35.47;19.25;;;22.00;51.30;;;;;;5112360;28;20483;-74
2024/01/31 00:58:01;;;;;;;31.15;18.00;;;21.90;51.20;;;;;;5093979;28;20055;-74
2024/01/31 01:00:27;;;;;;;32.40;17.52;;;21.90;51.10;;;;;;5111414;28;20486;-74
2024/01/31 01:02:53;;;;;;;30.15;17.00;;;22.00;51.10;;;;;;5112057;28;20030;-74
2024/01/31 01:05:22;;;;;;;27.48;18.40;;;21.90;51.00;;;;;;5112334;28;20043;-74
2024/01/31 01:07:49;;;;;;;31.15;18.13;;;22.00;50.90;;;;;;5111765;28;20036;-73
2024/01/31 01:10:15;;;;;;;34.25;19.77;;;21.90;50.90;;;;;;5112173;28;20430;-73
2024/01/31 01:12:42;;;;;;;36.63;19.95;;;21.90;50.80;;;;;;5112186;28;20042;-73
2024/01/31 01:15:10;;;;;;;34.95;21.55;;;22.00;50.80;;;;;;5111913;28;20077;-74
2024/01/31 01:17:37;;;;;;;34.55;19.85;;;22.00;50.80;;;;;;5112338;28;20027;-74
2024/01/31 01:20:08;;;;;;;35.10;20.58;;;22.00;50.80;;;;;;5111650;28;20059;-73
2024/01/31 01:22:35;;;;;;;34.60;20.38;;;21.90;50.80;;;;;;5094075;28;20035;-74
2024/01/31 01:25:01;;;;;;;35.50;20.40;;;21.80;50.70;;;;;;5112365;28;20044;-73
2024/01/31 01:27:27;;;;;;;32.80;19.58;;;21.80;50.60;;;;;;5111597;28;20043;-74
2024/01/31 01:29:53;;;;;;;29.95;18.33;;;21.90;50.80;;;;;;5111448;28;20087;-73
2024/01/31 01:32:20;;;;;;;32.15;18.55;;;21.70;50.70;;;;;;5076295;28;20093;-73
2024/01/31 01:34:46;;;;;;;31.27;19.42;;;21.70;50.80;;;;;;5091789;28;20028;-74
2024/01/31 01:37:12;;;;;;;29.98;18.20;;;21.70;50.80;;;;;;5091978;28;20043;-73
2024/01/31 01:39:39;;;;;;;33.30;18.52;;;21.70;50.90;;;;;;5111831;28;20030;-74
2024/01/31 01:42:05;;;;;;;34.50;19.73;;;21.80;50.90;;;;;;5111946;28;20050;-74
2024/01/31 01:44:33;;;;;;;33.17;19.92;;;21.80;50.80;;;;;;5111484;28;20035;-73
2024/01/31 01:47:02;;;;;;;33.83;19.35;;;21.70;50.70;;;;;;5107767;28;20423;-74
2024/01/31 01:49:32;;;;;;;28.83;18.50;;;21.70;50.70;;;;;;5075711;28;20031;-74
2024/01/31 01:51:58;;;;;;;36.10;20.52;;;21.80;50.70;;;;;;5111875;28;20039;-73
2024/01/31 01:54:25;;;;;;;31.15;19.05;;;21.90;50.70;;;;;;5111588;28;20372;-73
2024/01/31 01:56:53;;;;;;;28.15;19.38;;;21.80;50.70;;;;;;5093545;28;20111;-74
2024/01/31 01:59:19;;;;;;;30.35;18.38;;;21.80;50.60;;;;;;5110667;28;20052;-74
2024/01/31 02:01:46;;;;;;;29.27;17.55;;;21.80;50.60;;;;;;5037722;28;20155;-74
2024/01/31 02:04:13;;;;;;;26.30;17.38;;;22.00;50.70;;;;;;5091403;28;20095;-74
2024/01/31 02:06:39;;;;;;;28.80;16.27;;;21.90;50.70;;;;;;5073037;28;20040;-74
2024/01/31 02:09:06;;;;;;;26.95;17.08;;;21.80;50.60;;;;;;5083027;27;20035;-74
2024/01/31 02:11:34;;;;;;;30.80;18.33;;;21.90;50.70;;;;;;5132231;27;20055;-74
2024/01/31 02:14:00;;;;;;;28.55;16.67;;;21.80;50.60;;;;;;5114747;27;20504;-74
2024/01/31 02:16:26;;;;;;;29.30;17.92;;;21.70;50.70;;;;;;5111065;28;20058;-74
2024/01/31 02:18:52;;;;;;;27.48;17.15;;;21.80;50.60;;;;;;5111312;28;20122;-73
2024/01/31 02:21:19;;;;;;;26.48;15.02;;;21.70;50.60;;;;;;5073004;28;20040;-73
2024/01/31 02:23:45;;;;;;;30.88;17.50;;;21.60;50.50;;;;;;5089674;28;20464;-74
2024/01/31 02:26:11;;;;;;;27.27;16.17;;;21.60;50.60;;;;;;5073173;28;20064;-73
2024/01/31 02:28:37;;;;;;;23.77;14.15;;;21.70;50.60;;;;;;5108365;28;20043;-74
2024/01/31 02:31:04;;;;;;;24.10;13.55;;;21.60;50.50;;;;;;5111224;28;20066;-73
2024/01/31 02:33:30;;;;;;;22.02;13.00;;;21.70;50.60;;;;;;5111614;28;20023;-74
2024/01/31 02:35:56;;;;;;;24.35;12.18;;;21.60;50.50;;;;;;5111421;28;20056;-74
2024/01/31 02:38:22;;;;;;;17.20;11.60;;;21.80;50.40;;;;;;5111397;28;20755;-74
2024/01/31 02:40:48;;;;;;;19.98;13.27;;;21.80;50.40;;;;;;5092335;28;20050;-73
2024/01/31 02:43:15;;;;;;;21.83;13.30;;;21.70;50.40;;;;;;5113731;28;20065;-74
2024/01/31 02:45:41;;;;;;;22.30;12.98;;;21.80;50.40;;;;;;5115368;28;20080;-73
2024/01/31 02:48:08;;;;;;;20.90;13.13;;;21.70;50.40;;;;;;5115305;28;20031;-74
2024/01/31 02:50:34;;;;;;;19.42;12.43;;;21.70;50.30;;;;;;5096534;28;20039;-73
2024/01/31 02:53:01;;;;;;;22.88;12.90;;;21.80;50.30;;;;;;5114925;28;20352;-75
2024/01/31 02:55:27;;;;;;;20.02;12.93;;;21.70;50.30;;;;;;5114805;28;20111;-74
2024/01/31 02:57:53;;;;;;;20.60;12.75;;;21.60;50.30;;;;;;5114996;28;20039;-73
2024/01/31 03:00:19;;;;;;;21.10;12.65;;;21.60;50.30;;;;;;5114353;28;20089;-74
2024/01/31 03:02:45;;;;;;;20.73;12.07;;;21.70;50.30;;;;;;5115259;28;20061;-74
2024/01/31 03:05:12;;;;;;;20.13;13.13;;;21.70;50.40;;;;;;5114633;28;20118;-74
2024/01/31 03:07:39;;;;;;;23.23;13.68;;;21.60;50.30;;;;;;5114919;28;20053;-73
2024/01/31 03:10:06;;;;;;;23.20;12.95;;;21.60;50.30;;;;;;5114614;28;20031;-74
2024/01/31 03:12:32;;;;;;;22.88;14.18;;;21.60;50.30;;;;;;5096148;28;20036;-73
2024/01/31 03:14:58;;;;;;;28.08;13.55;;;21.50;50.30;;;;;;5096484;28;20399;-74
2024/01/31 03:17:24;;;;;;;23.25;13.23;;;21.50;50.50;;;;;;5114668;28;20038;-74
2024/01/31 03:19:50;;;;;;;22.48;12.90;;;21.50;50.40;;;;;;5114093;28;20035;-74
2024/01/31 03:22:16;;;;;;;17.73;11.52;;;21.40;50.20;;;;;;5114743;28;20085;-74
2024/01/31 03:24:42;;;;;;;20.98;13.05;;;21.70;50.30;;;;;;5114794;28;20028;-74
2024/01/31 03:27:08;;;;;;;21.92;12.43;;;21.60;50.20;;;;;;5114393;28;20348;-74
2024/01/31 03:29:36;;;;;;;19.30;11.93;;;21.60;50.20;;;;;;5114384;28;20055;-74
2024/01/31 03:32:02;;;;;;;19.80;12.40;;;21.70;50.20;;;;;;5095353;28;20031;-74
2024/01/31 03:34:29;;;;;;;21.65;12.73;;;21.70;50.20;;;;;;5114221;28;20509;-74
2024/01/31 03:36:55;;;;;;;21.58;12.20;;;21.60;50.10;;;;;;5096258;28;20027;-73
2024/01/31 03:39:21;;;;;;;21.02;11.23;;;21.60;50.10;;;;;;5114027;28;20093;-73
2024/01/31 03:41:49;;;;;;;19.15;11.70;;;21.80;50.20;;;;;;5114124;28;20028;-73
2024/01/31 03:44:15;;;;;;;20.67;12.07;;;21.80;50.30;;;;;;5096071;28;20040;-74
2024/01/31 03:46:41;;;;;;;20.15;10.90;;;21.60;50.30;;;;;;5114041;28;20046;-74
2024/01/31 03:49:07;;;;;;;18.95;11.48;;;21.60;50.60;;;;;;5113506;28;20038;-74
2024/01/31 03:51:33;;;;;;;17.45;11.45;;;21.60;50.60;;;;;;5114102;28;20043;-74
2024/01/31 03:54:00;;;;;;;14.80;9.60;;;21.60;50.60;;;;;;5113920;28;20055;-73
2024/01/31 03:56:26;;;;;;;16.73;10.38;;;21.50;50.60;;;;;;5113474;28;20039;-73
2024/01/31 03:58:52;;;;;;;19.35;10.43;;;21.50;50.60;;;;;;5113698;28;20043;-74
2024/01/31 04:01:18;;;;;;;18.60;11.63;;;21.50;50.60;;;;;;5121206;27;20023;-74
2024/01/31 04:03:45;;;;;;;16.67;10.05;;;21.50;50.60;;;;;;5134283;27;20047;-73
2024/01/31 04:06:11;;;;;;;14.43;10.00;;;21.50;50.50;;;;;;5134349;27;20035;-74
2024/01/31 04:08:38;;;;;;;17.13;10.20;;;21.50;50.60;;;;;;5115477;27;20046;-74
2024/01/31 04:11:04;;;;;;;20.80;11.73;;;21.50;50.50;;;;;;5115534;27;20028;-74
2024/01/31 04:13:31;;;;;;;17.67;10.38;;;21.50;50.50;;;;;;5112579;28;20038;-74
2024/01/31 04:15:58;;;;;;;16.08;10.45;;;21.70;50.50;;;;;;5112716;28;20042;-74
2024/01/31 04:18:24;;;;;;;17.08;10.85;;;21.70;50.50;;;;;;5113190;28;20085;-73
2024/01/31 04:20:50;;;;;;;16.98;10.85;;;21.60;50.40;;;;;;5112719;28;20038;-75
2024/01/31 04:23:17;;;;;;;17.77;11.25;;;21.70;50.50;;;;;;5112946;28;20069;-74
2024/01/31 04:25:43;;;;;;;16.35;10.88;;;21.60;50.30;;;;;;5113352;28;20545;-74
2024/01/31 04:28:12;;;;;;;19.05;10.90;;;21.70;50.30;;;;;;5113088;28;20050;-74
2024/01/31 04:30:38;;;;;;;17.70;11.68;;;21.60;50.30;;;;;;5113161;28;20081;-73
2024/01/31 04:33:04;;;;;;;20.67;12.50;;;21.70;50.30;;;;;;5076884;28;20412;-74
2024/01/31 04:35:30;;;;;;;19.30;12.48;;;21.50;50.20;;;;;;5113554;28;20047;-74
2024/01/31 04:37:56;;;;;;;20.63;11.82;;;21.60;50.20;;;;;;5094829;28;20043;-74
2024/01/31 04:40:22;;;;;;;21.00;12.15;;;21.60;50.20;;;;;;5112822;28;20027;-74
2024/01/31 04:42:49;;;;;;;20.95;13.30;;;21.50;50.20;;;;;;5094509;28;20035;-74
2024/01/31 04:45:15;;;;;;;19.80;11.52;;;21.50;50.20;;;;;;5113061;28;20035;-73
2024/01/31 04:47:41;;;;;;;22.35;12.88;;;21.50;50.20;;;;;;5112958;28;20032;-74
2024/01/31 04:50:07;;;;;;;21.75;13.15;;;21.40;50.10;;;;;;5094409;28;20414;-74
2024/01/31 04:52:34;;;;;;;19.00;11.82;;;21.40;50.10;;;;;;5112911;28;20111;-73
2024/01/31 04:55:00;;;;;;;20.75;12.23;;;21.40;50.10;;;;;;5112736;28;20147;-74
2024/01/31 04:57:26;;;;;;;23.58;12.32;;;21.40;50.20;;;;;;5112640;28;20396;-74
2024/01/31 04:59:52;;;;;;;19.42;12.88;;;21.40;50.20;;;;;;5112440;28;20494;-74
2024/01/31 05:02:18;;;;;;;22.45;12.73;;;21.50;50.30;;;;;;5094231;28;20030;-74
2024/01/31 05:04:44;;;;;;;19.73;13.13;;;21.40;50.30;;;;;;5068552;28;20181;-73
2024/01/31 05:07:10;;;;;;;21.80;12.93;;;21.40;50.20;;;;;;5069544;28;20052;-73
2024/01/31 05:09:37;;;;;;;20.13;12.38;;;21.50;50.30;;;;;;5052713;28;20052;-74
2024/01/31 05:12:03;;;;;;;23.33;14.43;;;21.50;50.20;;;;;;5068828;28;20036;-73
2024/01/31 05:14:29;;;;;;;21.85;13.45;;;21.40;50.10;;;;;;5068678;28;20400;-74
2024/01/31 05:16:55;;;;;;;19.85;13.05;;;21.50;50.10;;;;;;5052074;28;20050;-74
2024/01/31 05:19:22;;;;;;;21.33;12.65;;;21.40;50.00;;;;;;5029110;28;20057;-74
2024/01/31 05:21:49;;;;;;;22.10;13.55;;;21.50;50.00;;;;;;5029105;28;20045;-74
2024/01/31 05:24:16;;;;;;;28.40;16.10;;;21.60;50.00;;;;;;5029269;28;20113;-72
2024/01/31 05:26:44;;;;;;;32.35;16.90;;;21.50;49.90;;;;;;5028996;28;20045;-73
2024/01/31 05:29:10;;;;;;;28.08;16.15;;;21.40;49.80;;;;;;5029194;28;20516;-74
2024/01/31 05:31:36;;;;;;;30.90;16.63;;;21.40;49.90;;;;;;5028134;28;20041;-74
2024/01/31 05:34:02;;;;;;;30.30;17.75;;;21.40;49.90;;;;;;5028526;28;20025;-74
2024/01/31 05:36:28;;;;;;;31.00;17.08;;;21.50;50.00;;;;;;5043809;28;20040;-74
2024/01/31 05:38:55;;;;;;;25.85;16.63;;;21.40;50.00;;;;;;5068395;28;20492;-72
2024/01/31 05:41:21;;;;;;;25.48;16.35;;;21.30;50.00;;;;;;5068331;28;20031;-74
2024/01/31 05:43:48;;;;;;;30.85;17.80;;;21.40;50.00;;;;;;5068479;28;20449;-75
2024/01/31 05:46:17;;;;;;;28.88;17.50;;;21.40;50.10;;;;;;5068616;28;20029;-74
2024/01/31 05:48:45;;;;;;;28.90;17.92;;;21.30;50.10;;;;;;5089731;28;20046;-73
2024/01/31 05:51:12;;;;;;;31.20;18.02;;;21.30;50.20;;;;;;5111644;28;20081;-74
2024/01/31 05:53:38;;;;;;;28.63;16.92;;;21.30;50.30;;;;;;5093254;28;20039;-74
2024/01/31 05:56:04;;;;;;;34.83;17.42;;;21.20;50.20;;;;;;5111714;28;20055;-73
2024/01/31 05:58:30;;;;;;;30.92;17.75;;;21.30;50.20;;;;;;5075574;28;20120;-74
2024/01/31 06:00:57;;;;;;;35.25;20.67;;;21.20;50.10;;;;;;5110849;28;20126;-73
2024/01/31 06:03:25;;;;;;;36.40;20.58;;;21.30;50.20;;;;;;5113664;27;20063;-73
2024/01/31 06:05:51;;;;;;;34.03;19.77;;;21.30;50.10;;;;;;5132069;27;20023;-73
2024/01/31 06:08:23;;;;;;;39.08;22.55;;;21.30;50.10;;;;;;5132337;27;20088;-73
2024/01/31 06:10:53;;;;;;;32.20;19.52;;;21.20;49.90;;;;;;5061874;28;20032;-74
2024/01/31 06:13:23;;;;;;;37.22;21.27;;;21.50;50.10;;;;;;5111552;28;20433;-74
2024/01/31 06:15:49;;;;;;;36.88;20.88;;;21.30;50.00;;;;;;5111048;28;20055;-73
2024/01/31 06:18:15;;;;;;;34.53;20.65;;;21.20;49.80;;;;;;5111634;28;20071;-73
2024/01/31 06:20:44;;;;;;;31.98;18.90;;;21.40;50.00;;;;;;5110481;28;20051;-73
2024/01/31 06:23:13;;;;;;;35.45;19.80;;;21.30;50.00;;;;;;5093048;28;20391;-74
2024/01/31 06:25:39;;;;;;;40.15;22.23;;;21.30;50.00;;;;;;5111178;28;20066;-74
2024/01/31 06:28:08;;;;;;;31.08;19.30;;;21.20;49.90;;;;;;5111424;28;20052;-73
2024/01/31 06:30:43;;;;;;;42.13;22.08;;;21.20;50.00;;;;;;5110819;28;20531;-73
2024/01/31 06:33:10;;;;;;;36.33;21.10;;;21.20;50.00;;;;;;5111133;28;20498;-73
2024/01/31 06:35:38;;;;;;;37.58;21.40;;;21.20;50.20;;;;;;5092320;28;20035;-74
2024/01/31 06:38:05;;;;;;;36.75;22.33;;;21.10;50.20;;;;;;5110480;28;20036;-73
2024/01/31 06:40:31;;;;;;;42.17;24.80;;;21.30;50.40;;;;;;5092012;28;20024;-74
2024/01/31 06:42:58;;;;;;;40.55;23.60;;;21.10;50.30;;;;;;5110635;28;20032;-74
2024/01/31 06:45:27;;;;;;;41.10;22.65;;;21.10;50.40;;;;;;5108592;28;20035;-74
2024/01/31 06:47:53;;;;;;;36.20;20.90;;;21.10;50.30;;;;;;5110126;28;20028;-74
2024/01/31 06:50:20;;;;;;;37.50;21.25;;;21.20;50.40;;;;;;5074854;28;20085;-74
2024/01/31 06:52:47;;;;;;;8.95;6.60;;;21.20;50.30;;;;;;5111325;28;20047;-74
2024/01/31 06:55:13;;;;;;;8.35;7.28;;;21.20;45.30;;;;;;5075629;28;20042;-73
2024/01/31 06:57:40;;;;;;;7.10;5.38;;;21.40;41.60;;;;;;5110059;28;20031;-73
2024/01/31 07:00:10;;;;;;;7.07;6.00;;;21.30;45.60;;;;;;5071345;28;20063;-74
2024/01/31 07:02:37;;;;;;;10.77;7.50;;;21.40;45.10;;;;;;5110478;28;20078;-72
2024/01/31 07:05:04;;;;;;;10.98;8.05;;;21.50;44.10;;;;;;5074708;28;20047;-74
2024/01/31 07:07:31;;;;;;;11.98;9.43;;;21.50;43.90;;;;;;5109356;28;20031;-74
2024/01/31 07:09:57;;;;;;;12.85;9.75;;;21.60;50.10;;;;;;5113190;28;20450;-75
2024/01/31 07:12:23;;;;;;;16.00;10.18;;;21.60;47.00;;;;;;5097838;28;20024;-73
2024/01/31 07:14:49;;;;;;;14.20;9.98;;;21.70;45.10;;;;;;5092346;28;20110;-73
2024/01/31 07:17:15;;;;;;;13.88;11.13;;;21.80;48.10;;;;;;5108703;28;20040;-71
2024/01/31 07:19:45;;;;;;;13.32;11.13;;;21.90;47.00;;;;;;5110122;28;20046;-74
2024/01/31 07:22:11;;;;;;;21.98;16.55;;;21.90;47.50;;;;;;5100652;28;20517;-75
2024/01/31 07:24:38;;;;;;;14.05;10.45;;;22.10;45.80;;;;;;5110657;28;20024;-76
2024/01/31 07:27:04;;;;;;;13.00;9.30;;;22.00;44.70;;;;;;5110220;28;20035;-72
2024/01/31 07:29:30;;;;;;;33.47;20.35;;;22.00;39.30;;;;;;5112407;28;20483;-72
2024/01/31 07:31:56;;;;;;;9.73;5.65;;;22.10;51.60;;;;;;5113353;28;20031;-74
2024/01/31 07:34:23;;;;;;;10.52;6.13;;;22.10;53.40;;;;;;5112462;28;20028;-72
2024/01/31 07:36:49;;;;;;;8.48;5.43;;;22.20;54.60;;;;;;5111788;28;20047;-73
2024/01/31 07:39:15;;;;;;;8.27;5.05;;;22.30;52.10;;;;;;5119695;27;20063;-76
2024/01/31 07:41:44;;;;;;;9.65;7.18;;;22.30;51.40;;;;;;5090185;28;20059;-73
2024/01/31 07:44:10;;;;;;;12.02;6.35;;;22.30;51.00;;;;;;5090702;28;20460;-73
2024/01/31 07:46:36;;;;;;;10.98;6.70;;;22.20;50.40;;;;;;5091402;28;20463;-71
2024/01/31 07:49:06;;;;;;;10.80;5.95;;;22.30;49.80;;;;;;5090481;28;20391;-74
2024/01/31 07:51:32;;;;;;;8.90;5.88;;;22.40;49.40;;;;;;5078169;28;20071;-75
2024/01/31 07:53:58;;;;;;;10.25;6.30;;;22.40;49.00;;;;;;5089188;28;20043;-74
2024/01/31 07:56:24;;;;;;;9.95;6.75;;;22.40;49.10;;;;;;5082167;28;20047;-75
2024/01/31 07:58:50;;;;;;;13.10;7.03;;;22.30;48.60;;;;;;5093641;28;20048;-77
2024/01/31 08:01:16;;;;;;;17.42;7.43;;;22.30;48.10;;;;;;5073986;28;20488;-79
2024/01/31 08:03:43;;;;;;;11.27;6.75;;;22.50;47.80;;;;;;5073829;28;20169;-73
2024/01/31 08:06:09;;;;;;;16.83;7.78;;;22.40;49.50;;;;;;5090959;28;20047;-73
2024/01/31 08:08:37;;;;;;;18.15;9.95;;;22.30;48.60;;;;;;5090551;28;20071;-74
2024/01/31 08:11:03;;;;;;;11.27;7.53;;;22.40;48.20;;;;;;5073974;28;20028;-75
2024/01/31 08:13:29;;;;;;;10.50;6.80;;;22.40;48.60;;;;;;5116157;27;20131;-75
2024/01/31 08:15:55;;;;;;;11.27;6.78;;;22.40;47.90;;;;;;5113744;27;20065;-75
2024/01/31 08:18:21;;;;;;;12.38;7.50;;;22.40;47.40;;;;;;5113253;28;20039;-74
2024/01/31 08:20:48;;;;;;;14.50;7.60;;;22.40;47.40;;;;;;5107491;27;20037;-74
2024/01/31 08:23:14;;;;;;;11.02;7.30;;;22.50;47.70;;;;;;5105069;28;20054;-71
2024/01/31 08:25:40;;;;;;;9.43;6.55;;;22.40;47.80;;;;;;5112990;28;20035;-74
2024/01/31 08:28:06;;;;;;;19.17;11.85;;;22.50;47.80;;;;;;5111094;27;20074;-77
2024/01/31 08:30:33;;;;;;;10.90;7.20;;;22.60;47.70;;;;;;5111359;28;20039;-77
2024/01/31 08:32:59;;;;;;;13.55;7.95;;;22.50;47.70;;;;;;5112041;28;20419;-75
2024/01/31 08:35:25;;;;;;;13.00;7.25;;;22.50;47.80;;;;;;5112857;28;20057;-76
2024/01/31 08:37:52;;;;;;;11.00;7.45;;;22.50;47.80;;;;;;5112616;28;20139;-74
2024/01/31 08:40:18;;;;;;;10.82;7.05;;;22.40;47.60;;;;;;5094524;28;20093;-75
2024/01/31 08:42:44;;;;;;;11.40;6.72;;;22.50;47.70;;;;;;5094580;28;20122;-78
2024/01/31 08:45:10;;;;;;;17.75;10.77;;;22.40;47.60;;;;;;5096934;27;20408;-77
2024/01/31 08:47:36;;;;;;;10.52;6.72;;;22.60;47.70;;;;;;5133674;27;20563;-75
2024/01/31 08:50:03;;;;;;;10.38;6.70;;;22.60;47.70;;;;;;5122686;27;20098;-76
2024/01/31 08:52:29;;;;;;;9.77;6.97;;;22.50;47.80;;;;;;5112922;28;20028;-76
2024/01/31 08:54:55;;;;;;;8.93;6.90;;;22.40;47.80;;;;;;5093970;28;20073;-75
2024/01/31 08:57:21;;;;;;;11.45;6.43;;;22.50;48.00;;;;;;5094277;28;20034;-75
2024/01/31 08:59:47;;;;;;;9.38;6.20;;;22.50;48.00;;;;;;5094729;28;20114;-74
2024/01/31 09:02:14;;;;;;;12.07;8.40;;;22.50;47.80;;;;;;5094199;28;20044;-74
2024/01/31 09:04:40;;;;;;;9.75;6.07;;;22.50;47.80;;;;;;5111864;28;20028;-75
2024/01/31 09:07:07;;;;;;;21.80;12.10;;;22.50;47.70;;;;;;5112106;28;20028;-74
2024/01/31 09:09:37;;;;;;;7.22;5.93;;;22.50;47.70;;;;;;5112038;28;20020;-75
2024/01/31 09:12:05;;;;;;;9.45;6.38;;;22.60;47.70;;;;;;5112416;28;20079;-74
2024/01/31 09:14:33;;;;;;;7.47;5.13;;;22.60;47.70;;;;;;5111886;28;20069;-74
2024/01/31 09:16:59;;;;;;;10.13;6.15;;;22.50;47.80;;;;;;5042902;28;20051;-74
2024/01/31 09:19:25;;;;;;;8.65;5.72;;;22.50;47.70;;;;;;5112623;27;20038;-73
2024/01/31 09:21:52;;;;;;;6.75;5.05;;;22.50;47.70;;;;;;5097584;28;20534;-73
2024/01/31 09:24:18;;;;;;;21.63;13.82;;;22.40;47.60;;;;;;5117087;27;20028;-72
2024/01/31 09:26:44;;;;;;;18.35;12.63;;;22.40;47.40;;;;;;5112083;28;20063;-73
2024/01/31 09:29:10;;;;;;;9.98;7.32;;;22.40;47.10;;;;;;5095557;28;20043;-73
2024/01/31 09:31:36;;;;;;;8.30;6.63;;;22.40;46.90;;;;;;5111919;28;20031;-73
2024/01/31 09:34:02;;;;;;;9.32;6.82;;;22.40;47.00;;;;;;5119209;27;20394;-74
2024/01/31 09:36:28;;;;;;;10.45;6.38;;;22.40;46.90;;;;;;5132273;27;20035;-74
2024/01/31 09:38:55;;;;;;;11.63;6.82;;;22.30;46.80;;;;;;5119349;27;20023;-73
2024/01/31 09:41:21;;;;;;;12.13;6.82;;;22.30;46.60;;;;;;5111293;28;20105;-74
2024/01/31 09:43:47;;;;;;;11.10;7.85;;;22.30;46.50;;;;;;5112707;27;20032;-71
2024/01/31 09:46:17;;;;;;;12.90;7.93;;;22.20;46.20;;;;;;5114062;27;20466;-75
2024/01/31 09:48:43;;;;;;;14.32;7.55;;;22.10;46.10;;;;;;5111358;28;20110;-72
2024/01/31 09:51:09;;;;;;;10.50;6.47;;;22.30;46.20;;;;;;5111487;27;20031;-74
2024/01/31 09:53:36;;;;;;;12.93;7.68;;;22.20;46.40;;;;;;5110792;28;20050;-73
2024/01/31 09:56:07;;;;;;;9.50;6.40;;;22.20;46.60;;;;;;5111061;28;20035;-73
2024/01/31 09:58:33;;;;;;;11.63;7.05;;;22.20;47.30;;;;;;5111183;28;20031;-72
2024/01/31 10:01:03;;;;;;;35.55;19.25;;;22.10;47.60;;;;;;5110998;28;20043;-75
2024/01/31 10:03:29;;;;;;;32.30;19.80;;;22.20;47.60;;;;;;5111622;28;20473;-74
2024/01/31 10:05:55;;;;;;;33.47;18.50;;;22.20;48.00;;;;;;5111023;28;20039;-75
2024/01/31 10:08:21;;;;;;;31.88;19.25;;;22.00;48.10;;;;;;5110948;28;20425;-74
2024/01/31 10:10:48;;;;;;;34.78;19.17;;;22.20;48.80;;;;;;5090742;28;20406;-73
2024/01/31 10:13:16;;;;;;;30.85;18.92;;;22.00;48.90;;;;;;5107095;28;20026;-73
2024/01/31 10:15:43;;;;;;;32.30;18.65;;;22.10;49.10;;;;;;5110696;28;20033;-72
2024/01/31 10:18:09;;;;;;;28.05;17.67;;;22.00;49.10;;;;;;5076119;28;20129;-72
2024/01/31 10:20:35;;;;;;;30.05;18.05;;;22.00;49.20;;;;;;5113271;27;20036;-73
2024/01/31 10:23:01;;;;;;;36.35;18.98;;;22.10;49.40;;;;;;5111044;28;20039;-73
2024/01/31 10:25:29;;;;;;;32.40;17.92;;;22.10;49.50;;;;;;5111164;28;20035;-73
2024/01/31 10:27:56;;;;;;;30.00;17.88;;;22.20;49.70;;;;;;5111149;28;20095;-73
2024/01/31 10:30:22;;;;;;;28.13;17.15;;;22.20;49.90;;;;;;5110931;28;20035;-76
2024/01/31 10:32:50;;;;;;;30.70;17.88;;;22.20;49.90;;;;;;5110855;28;20023;-75
2024/01/31 10:35:17;;;;;;;26.15;16.15;;;22.30;50.00;;;;;;5053980;28;20372;-75
2024/01/31 10:37:43;;;;;;;28.20;17.30;;;22.30;50.20;;;;;;5097266;28;20060;-76
2024/01/31 10:40:09;;;;;;;27.10;16.90;;;22.30;50.30;;;;;;5110841;28;20038;-76
2024/01/31 10:42:36;;;;;;;29.40;17.58;;;22.30;50.70;;;;;;5111309;28;20040;-76
2024/01/31 10:45:03;;;;;;;31.48;18.13;;;22.40;50.90;;;;;;5111076;28;20079;-75
2024/01/31 10:47:30;;;;;;;29.02;17.52;;;22.30;51.10;;;;;;5050664;28;20682;-76
2024/01/31 10:49:56;;;;;;;33.25;18.73;;;22.40;51.20;;;;;;5060719;28;20124;-76
2024/01/31 10:52:31;;;;;;;30.92;17.45;;;22.40;51.40;;;;;;5048144;28;20065;-76
2024/01/31 10:55:03;;;;;;;32.53;18.88;;;22.50;51.60;;;;;;5048036;28;20037;-77
2024/01/31 10:57:30;;;;;;;33.17;18.67;;;22.40;51.70;;;;;;5031062;28;20045;-75
2024/01/31 10:59:56;;;;;;;31.77;17.98;;;22.40;51.90;;;;;;5048140;28;20409;-76
2024/01/31 11:02:33;;;;;;;32.80;17.85;;;22.50;52.10;;;;;;5047921;28;20057;-75
2024/01/31 11:05:00;;;;;;;30.50;18.77;;;22.60;52.10;;;;;;5035188;28;20087;-77
2024/01/31 11:07:28;;;;;;;32.88;18.65;;;22.60;52.20;;;;;;5052526;28;20068;-75
2024/01/31 11:09:54;;;;;;;30.63;18.13;;;22.50;52.10;;;;;;5051855;28;20124;-75
2024/01/31 11:12:21;;;;;;;32.47;17.92;;;22.60;51.60;;;;;;5056767;28;20071;-77
2024/01/31 11:14:50;;;;;;;29.25;17.25;;;22.50;51.80;;;;;;5071805;28;20048;-76
2024/01/31 11:17:23;;;;;;;29.23;16.70;;;22.50;51.80;;;;;;5054558;28;20032;-76
2024/01/31 11:19:55;;;;;;;27.77;16.60;;;22.50;51.80;;;;;;5114435;28;20432;-74
2024/01/31 11:22:22;;;;;;;31.90;18.37;;;22.50;51.80;;;;;;5113909;28;20467;-77
2024/01/31 11:24:49;;;;;;;33.42;18.33;;;22.60;51.80;;;;;;5114513;28;20036;-74
2024/01/31 11:27:17;;;;;;;31.75;17.90;;;22.60;51.80;;;;;;5114097;28;20044;-76
2024/01/31 11:29:49;;;;;;;30.48;17.48;;;22.50;51.80;;;;;;5114420;28;20051;-76
2024/01/31 11:32:15;;;;;;;30.08;17.17;;;22.50;51.80;;;;;;5095704;28;20096;-76
2024/01/31 11:34:42;;;;;;;11.73;8.43;;;22.70;51.70;;;;;;5114336;28;20032;-77
2024/01/31 11:37:09;;;;;;;13.15;7.80;;;22.50;51.60;;;;;;5114048;28;20075;-75
2024/01/31 11:39:35;;;;;;;6.43;5.05;;;22.50;51.40;;;;;;5112597;28;20023;-75
2024/01/31 11:42:02;;;;;;;9.95;5.35;;;22.60;51.10;;;;;;5113986;28;20490;-74
2024/01/31 11:44:29;;;;;;;16.48;7.07;;;22.90;54.30;;;;;;5113627;28;20498;-75
2024/01/31 11:46:56;;;;;;;11.95;8.07;;;23.00;54.00;;;;;;5113706;28;20106;-74
2024/01/31 11:49:22;;;;;;;11.70;8.43;;;23.20;54.80;;;;;;5097679;27;20040;-75
2024/01/31 11:51:49;;;;;;;12.73;9.32;;;23.20;54.00;;;;;;5131363;27;20039;-75
2024/01/31 11:54:16;;;;;;;13.43;9.95;;;23.40;53.90;;;;;;5113790;28;20471;-76
2024/01/31 11:56:42;;;;;;;14.23;11.40;;;23.50;52.20;;;;;;5121369;27;20035;-76
2024/01/31 11:59:09;;;;;;;19.85;11.40;;;23.40;52.20;;;;;;5092683;28;20057;-72
2024/01/31 12:01:35;;;;;;;15.13;11.20;;;23.60;47.20;;;;;;5114887;27;20047;-74
2024/01/31 12:04:04;;;;;;;15.80;11.23;;;23.30;38.80;;;;;;5058104;28;20381;-78
2024/01/31 12:06:31;;;;;;;14.52;10.57;;;23.30;38.30;;;;;;5093779;28;20028;-74
2024/01/31 12:08:57;;;;;;;14.23;10.27;;;23.20;37.30;;;;;;5113337;28;20451;-71
2024/01/31 12:11:23;;;;;;;13.68;10.07;;;23.20;36.70;;;;;;5109832;27;20035;-77
2024/01/31 12:13:50;;;;;;;18.48;11.48;;;23.20;36.40;;;;;;5095424;28;20055;-75
2024/01/31 12:16:16;;;;;;;14.73;9.75;;;23.20;40.80;;;;;;5093204;28;20036;-74
2024/01/31 12:18:42;;;;;;;18.65;10.80;;;23.30;42.50;;;;;;5113519;28;20031;-74
2024/01/31 12:21:11;;;;;;;16.73;9.40;;;23.40;42.40;;;;;;5113459;27;20394;-75
2024/01/31 12:23:37;;;;;;;17.35;10.02;;;23.70;43.30;;;;;;5112545;28;20031;-75
2024/01/31 12:26:03;;;;;;;14.95;10.02;;;23.80;42.80;;;;;;5112976;28;20024;-75
2024/01/31 12:28:30;;;;;;;14.05;9.40;;;23.80;42.20;;;;;;5113160;28;20445;-78